Meteo Giornale » Osservazioni meteo Stati Uniti (USA) » Boise
ore: 04:53 - Osservazioni Meteo Boise
Lat. 43° 34' N Lon. 116° 14' W Alt. 871 metri s.l.m.
19 °C
Sereno
Temp. 24 Ore
17 °C
29 °C
Nord
7.4 Km/h
Dew point 5 °C
Umidità 39 %
Visibilità 10 Km
Il sole sorge alle ore 07:10
Il sole tramonta alle ore 20:18
| Data e Ora | Cielo e Fenomeni | T °C | DP °C | Um. % | Pres. hPa | Vis. km | Vento km/h | |
|---|---|---|---|---|---|---|---|---|
| Oggi h: 04:53 | Sereno | 19 | 5 | 39 | 1008 | 10 | N 7.4 | |
| Oggi h: 03:53 | Sereno | 17 | 8 | 55 | 1008 | 10 | N 7.4 | |
| Oggi h: 02:53 | Sereno | 17 | 8 | 55 | 1007 | 10 | N 0 | |
| Oggi h: 01:53 | Sereno | 19 | 9 | 52 | 1007 | 10 | S/SE 7.4 | |
| Oggi h: 00:53 | Sereno | 19 | 9 | 52 | 1006 | 10 | N 5.5 | |
| Ieri h: 23:53 | Sereno | 21 | 6 | 37 | 1006 | 10 | S/SO 11.1 | |
| Ieri h: 22:53 | Nuvoloso | 22 | 4 | 30 | 1006 | 10 | E/SE 9.3 | |
| Ieri h: 21:53 | Sereno | 25 | 4 | 25 | 1006 | 10 | N 0 | |
| Ieri h: 20:53 | Sereno | 24 | 6 | 31 | 1006 | 10 | N 7.4 | |
| Ieri h: 19:53 | Sereno | 27 | 6 | 26 | 1006 | 10 | N 13 | |
| Ieri h: 18:53 | Sereno | 28 | 4 | 21 | 1007 | 10 | NO 16.7 | |
| Ieri h: 17:53 | Sereno | 29 | 7 | 25 | 1006 | 10 | O/NO 20.3 | |
| Ieri h: 16:53 | Sereno | 29 | 7 | 25 | 1007 | 10 | O 18.5 | |
| Ieri h: 15:53 | Sereno | 29 | 8 | 26 | 1008 | 10 | O 13 | |
| Ieri h: 14:53 | Sereno | 28 | 8 | 28 | 1009 | 10 | N 9.3 | |
| Ieri h: 13:53 | Sereno | 28 | 9 | 30 | 1010 | 10 | O/NO 16.7 | |
| Ieri h: 12:53 | Sereno | 26 | 11 | 39 | 1010 | 10 | O/NO 27.8 | |
| Ieri h: 11:53 | Nuvoloso | 26 | 11 | 39 | 1010 | 10 | N/NO 22.2 | |
| Ieri h: 11:37 | Sereno | 24 | 10 | 41 | 1010 | 10 | N/NO 24 | |
| Ieri h: 10:53 | Sereno | 27 | 8 | 30 | 1010 | 10 | SE 24 | |
| Ieri h: 09:53 | Sereno | 23 | 7 | 35 | 1010 | 10 | N 0 | |
| Ieri h: 08:53 | Sereno | 21 | 5 | 35 | 1010 | 10 | NO 7.4 | |
| Ieri h: 07:53 | Sereno | 19 | 4 | 37 | 1009 | 10 | NO 11.1 | |
| Ieri h: 06:53 | Sereno | 18 | 3 | 36 | 1009 | 10 | O/NO 13 | |
| Ieri h: 05:53 | Sereno | 23 | 5 | 31 | 1009 | 10 | E/SE 9.3 | |



